Time;durP1;ratioP1;P1;durP2;ratioP2;P2;SDS_P1;SDS_P2;PMS_P1;PMS_P2;Temp;Humidity;BMP_temperature;BMP_pressure;BME280_temperature;BME280_humidity;BME280_pressure;Samples;Min_cycle;Max_cycle;Signal;HPM_P1;HPM_P2
2023/07/28 00:00:05;;;;;;;;;;;21.10;66.60;;;;;;5003288;28;1034;-70
2023/07/28 00:02:31;;;;;;;;;;;21.00;66.50;;;;;;4987227;28;1243;-70
2023/07/28 00:04:56;;;;;;;;;;;21.10;66.60;;;;;;5001197;28;892;-70
2023/07/28 00:07:22;;;;;;;;;;;21.10;66.60;;;;;;5002303;28;904;-70
2023/07/28 00:09:47;;;;;;;;;;;21.10;66.50;;;;;;4997677;28;1915;-70
2023/07/28 00:12:13;;;;;;;;;;;21.00;66.50;;;;;;5000270;28;1285;-70
2023/07/28 00:14:38;;;;;;;;;;;21.10;66.60;;;;;;4999570;28;930;-71
2023/07/28 00:17:04;;;;;;;;;;;21.10;66.60;;;;;;4999195;28;883;-70
2023/07/28 00:19:29;;;;;;;;;;;21.10;66.60;;;;;;5001695;28;1400;-70
2023/07/28 00:21:56;;;;;;;;;;;21.10;66.60;;;;;;4996437;28;1269;-70
2023/07/28 00:24:21;;;;;;;;;;;21.10;66.60;;;;;;4997808;28;824;-71
2023/07/28 00:26:47;;;;;;;;;;;21.10;66.60;;;;;;4997431;28;887;-71
2023/07/28 00:29:12;;;;;;;;;;;21.10;66.60;;;;;;5000507;28;1969;-71
2023/07/28 00:31:38;;;;;;;;;;;21.10;66.60;;;;;;4998267;28;1293;-70
2023/07/28 00:34:03;;;;;;;;;;;21.00;66.50;;;;;;5000204;28;904;-70
2023/07/28 00:36:29;;;;;;;;;;;21.10;66.60;;;;;;4983829;28;991;-70
2023/07/28 00:38:54;;;;;;;;;;;21.10;66.60;;;;;;4986479;28;1384;-70
2023/07/28 00:41:20;;;;;;;;;;;21.10;66.60;;;;;;4999156;28;1380;-70
2023/07/28 00:43:45;;;;;;;;;;;21.10;66.60;;;;;;4999169;28;1315;-70
2023/07/28 00:46:11;;;;;;;;;;;21.10;66.60;;;;;;4996171;28;947;-72
2023/07/28 00:48:37;;;;;;;;;;;21.10;66.70;;;;;;4997423;28;806;-72
2023/07/28 00:51:02;;;;;;;;;;;21.00;66.60;;;;;;5002462;28;1985;-72
2023/07/28 00:53:28;;;;;;;;;;;21.00;66.50;;;;;;5002173;28;1077;-72
2023/07/28 00:55:53;;;;;;;;;;;21.00;66.50;;;;;;4999946;28;931;-72
2023/07/28 00:58:19;;;;;;;;;;;21.10;66.60;;;;;;5000238;28;813;-71
2023/07/28 01:00:44;;;;;;;;;;;21.10;66.60;;;;;;5001063;28;815;-72
2023/07/28 01:03:10;;;;;;;;;;;21.10;66.60;;;;;;4999333;28;1277;-72
2023/07/28 01:05:44;;;;;;;;;;;21.10;66.60;;;;;;4997189;28;833;-72
2023/07/28 01:08:11;;;;;;;;;;;21.10;66.60;;;;;;4999283;28;959;-72
2023/07/28 01:10:37;;;;;;;;;;;21.10;66.60;;;;;;4983729;28;1954;-72
2023/07/28 01:13:02;;;;;;;;;;;21.10;66.60;;;;;;4997325;28;1306;-72
2023/07/28 01:15:28;;;;;;;;;;;21.10;66.70;;;;;;5000571;28;868;-72
2023/07/28 01:17:53;;;;;;;;;;;21.00;66.60;;;;;;4997338;28;868;-72
2023/07/28 01:20:19;;;;;;;;;;;21.10;66.70;;;;;;5002088;28;1376;-71
2023/07/28 01:22:59;;;;;;;;;;;21.00;66.60;;;;;;4987827;28;1292;-71
2023/07/28 01:25:47;;;;;;;;;;;21.10;66.70;;;;;;5001766;28;881;-70
2023/07/28 01:28:12;;;;;;;;;;;21.10;66.70;;;;;;4999520;28;916;-70
2023/07/28 01:30:38;;;;;;;;;;;21.00;66.60;;;;;;4998117;28;1972;-70
2023/07/28 01:33:05;;;;;;;;;;;21.10;66.60;;;;;;4998107;28;1245;-71
2023/07/28 01:35:31;;;;;;;;;;;21.10;66.70;;;;;;4998209;28;1046;-71
2023/07/28 01:37:56;;;;;;;;;;;21.10;66.70;;;;;;4990650;28;892;-70
2023/07/28 01:40:22;;;;;;;;;;;21.10;66.70;;;;;;5000632;28;1337;-70
2023/07/28 01:42:47;;;;;;;;;;;21.00;66.60;;;;;;5000909;28;1346;-71
2023/07/28 01:45:13;;;;;;;;;;;21.10;66.70;;;;;;4995500;28;807;-71
2023/07/28 01:47:38;;;;;;;;;;;21.10;66.70;;;;;;4998842;28;1101;-72
2023/07/28 01:50:04;;;;;;;;;;;21.10;66.70;;;;;;4983687;28;1969;-72
2023/07/28 01:52:29;;;;;;;;;;;21.10;66.70;;;;;;4999010;28;1378;-70
2023/07/28 01:54:54;;;;;;;;;;;21.10;66.70;;;;;;4983584;28;1019;-71
2023/07/28 01:57:20;;;;;;;;;;;21.10;66.60;;;;;;4997598;28;903;-71
2023/07/28 01:59:45;;;;;;;;;;;21.10;66.70;;;;;;4998481;28;953;-71
2023/07/28 02:02:12;;;;;;;;;;;21.10;66.70;;;;;;4996798;28;1268;-71
2023/07/28 02:04:37;;;;;;;;;;;21.10;66.70;;;;;;4999543;28;946;-71
2023/07/28 02:07:02;;;;;;;;;;;21.10;66.70;;;;;;4999112;28;1222;-71
2023/07/28 02:09:28;;;;;;;;;;;21.10;66.70;;;;;;4998693;28;1891;-71
2023/07/28 02:11:53;;;;;;;;;;;21.10;66.70;;;;;;4996782;28;1330;-71
2023/07/28 02:14:19;;;;;;;;;;;21.10;66.70;;;;;;5000534;28;892;-71
2023/07/28 02:16:44;;;;;;;;;;;21.10;66.70;;;;;;5000272;28;1219;-71
2023/07/28 02:19:10;;;;;;;;;;;21.10;66.70;;;;;;4984912;28;1294;-72
2023/07/28 02:21:35;;;;;;;;;;;21.10;66.70;;;;;;4985507;28;1544;-71
2023/07/28 02:24:01;;;;;;;;;;;21.10;66.70;;;;;;5002249;28;1337;-71
2023/07/28 02:26:26;;;;;;;;;;;21.10;66.80;;;;;;5002955;28;1276;-71
2023/07/28 02:28:52;;;;;;;;;;;21.10;66.70;;;;;;5001628;28;1906;-71
2023/07/28 02:31:17;;;;;;;;;;;21.10;66.70;;;;;;4999756;28;1465;-72
2023/07/28 02:33:42;;;;;;;;;;;21.00;66.70;;;;;;5000307;28;1591;-70
2023/07/28 02:36:08;;;;;;;;;;;21.10;66.70;;;;;;4997901;28;1386;-71
2023/07/28 02:38:33;;;;;;;;;;;21.00;66.70;;;;;;4996431;28;864;-69
2023/07/28 02:40:59;;;;;;;;;;;21.10;66.70;;;;;;4989179;28;911;-71
2023/07/28 02:43:24;;;;;;;;;;;21.10;66.70;;;;;;4999649;28;1238;-71
2023/07/28 02:45:53;;;;;;;;;;;21.10;66.70;;;;;;4999096;28;1545;-71
2023/07/28 02:48:21;;;;;;;;;;;21.00;66.70;;;;;;4999217;28;1006;-70
2023/07/28 02:50:47;;;;;;;;;;;21.00;66.60;;;;;;4995473;28;1971;-71
2023/07/28 02:53:15;;;;;;;;;;;21.10;66.80;;;;;;4999913;28;1331;-71
2023/07/28 02:55:43;;;;;;;;;;;21.10;66.70;;;;;;4999471;28;805;-71
2023/07/28 02:58:09;;;;;;;;;;;21.00;66.70;;;;;;4983427;28;915;-71
2023/07/28 03:00:36;;;;;;;;;;;21.00;66.70;;;;;;5001652;28;891;-71
2023/07/28 03:03:02;;;;;;;;;;;21.10;66.70;;;;;;4996698;28;1333;-70
2023/07/28 03:05:28;;;;;;;;;;;21.10;66.70;;;;;;5001461;28;926;-71
2023/07/28 03:07:53;;;;;;;;;;;21.10;66.80;;;;;;4999407;28;903;-71
2023/07/28 03:10:18;;;;;;;;;;;21.10;66.80;;;;;;4987330;28;1895;-71
2023/07/28 03:12:44;;;;;;;;;;;21.10;66.80;;;;;;4999147;28;1390;-71
2023/07/28 03:15:10;;;;;;;;;;;21.10;66.80;;;;;;5002666;28;806;-71
2023/07/28 03:17:35;;;;;;;;;;;21.10;66.80;;;;;;5002591;28;891;-71
2023/07/28 03:20:01;;;;;;;;;;;21.10;66.70;;;;;;4988620;28;1370;-71
2023/07/28 03:22:26;;;;;;;;;;;21.10;66.80;;;;;;4997504;28;1277;-71
2023/07/28 03:24:52;;;;;;;;;;;21.10;66.80;;;;;;5002300;28;888;-71
2023/07/28 03:27:17;;;;;;;;;;;21.10;66.80;;;;;;5004058;28;1263;-71
2023/07/28 03:29:43;;;;;;;;;;;21.00;66.70;;;;;;4998195;28;1964;-71
2023/07/28 03:32:08;;;;;;;;;;;21.10;66.80;;;;;;5001776;28;1252;-70
2023/07/28 03:34:33;;;;;;;;;;;21.10;66.80;;;;;;5000410;28;959;-71
2023/07/28 03:36:59;;;;;;;;;;;21.10;66.80;;;;;;5005652;28;951;-71
2023/07/28 03:39:25;;;;;;;;;;;21.10;66.80;;;;;;4998458;28;1004;-71
2023/07/28 03:41:50;;;;;;;;;;;21.10;66.80;;;;;;5001099;28;1438;-71
2023/07/28 03:44:16;;;;;;;;;;;21.10;66.80;;;;;;5004138;28;1044;-70
2023/07/28 03:46:41;;;;;;;;;;;21.10;66.80;;;;;;5003846;28;852;-71
2023/07/28 03:49:07;;;;;;;;;;;21.10;66.80;;;;;;4998810;28;1898;-71
2023/07/28 03:51:32;;;;;;;;;;;21.10;66.80;;;;;;5003325;28;1547;-71
2023/07/28 03:53:58;;;;;;;;;;;21.10;66.80;;;;;;4999580;28;931;-71
2023/07/28 03:56:23;;;;;;;;;;;21.10;66.90;;;;;;5002897;28;912;-71
2023/07/28 03:58:49;;;;;;;;;;;21.10;66.80;;;;;;5000889;28;828;-71
2023/07/28 04:01:14;;;;;;;;;;;21.10;66.80;;;;;;4999193;28;1276;-71
2023/07/28 04:03:40;;;;;;;;;;;21.00;66.80;;;;;;5004219;28;843;-70
2023/07/28 04:06:10;;;;;;;;;;;21.00;66.80;;;;;;5000694;28;844;-70
2023/07/28 04:08:35;;;;;;;;;;;21.10;66.80;;;;;;4984825;28;1177;-71
2023/07/28 04:11:01;;;;;;;;;;;21.10;66.80;;;;;;4999005;28;1903;-70
2023/07/28 04:13:26;;;;;;;;;;;21.10;66.80;;;;;;5002496;28;1276;-71
2023/07/28 04:15:52;;;;;;;;;;;21.10;66.80;;;;;;5001432;28;859;-70
2023/07/28 04:18:18;;;;;;;;;;;21.10;66.90;;;;;;4982354;28;1458;-70
2023/07/28 04:20:43;;;;;;;;;;;21.10;66.80;;;;;;5000787;28;862;-70
2023/07/28 04:23:08;;;;;;;;;;;21.10;66.90;;;;;;5000004;28;1265;-71
2023/07/28 04:25:34;;;;;;;;;;;21.10;66.80;;;;;;4999296;28;872;-70
2023/07/28 04:27:59;;;;;;;;;;;21.10;66.80;;;;;;5000711;28;1256;-70
2023/07/28 04:30:25;;;;;;;;;;;21.00;66.80;;;;;;5002652;28;1910;-70
2023/07/28 04:32:50;;;;;;;;;;;21.10;66.90;;;;;;5000775;28;1275;-70
2023/07/28 04:35:16;;;;;;;;;;;21.10;66.90;;;;;;5001555;28;823;-70
2023/07/28 04:37:41;;;;;;;;;;;21.10;66.80;;;;;;4991893;28;1284;-71
2023/07/28 04:40:08;;;;;;;;;;;21.00;66.80;;;;;;5002236;28;1058;-71
2023/07/28 04:42:33;;;;;;;;;;;21.00;66.80;;;;;;4998755;28;1288;-71
2023/07/28 04:44:59;;;;;;;;;;;21.10;66.90;;;;;;5002048;28;995;-71
2023/07/28 04:47:24;;;;;;;;;;;21.00;66.80;;;;;;5004074;28;1473;-70
2023/07/28 04:49:50;;;;;;;;;;;21.10;66.80;;;;;;4999747;28;1914;-71
2023/07/28 04:52:15;;;;;;;;;;;21.10;66.90;;;;;;4999015;28;1249;-70
2023/07/28 04:54:41;;;;;;;;;;;21.10;66.90;;;;;;4999546;28;1123;-71
2023/07/28 04:57:06;;;;;;;;;;;21.10;66.90;;;;;;4997989;28;921;-71
2023/07/28 04:59:31;;;;;;;;;;;21.10;66.90;;;;;;5000313;28;934;-70
2023/07/28 05:01:57;;;;;;;;;;;21.00;66.80;;;;;;5000421;28;1281;-70
2023/07/28 05:04:22;;;;;;;;;;;21.10;66.90;;;;;;5001828;28;846;-70
2023/07/28 05:06:48;;;;;;;;;;;21.10;66.90;;;;;;5001145;28;943;-70
2023/07/28 05:09:13;;;;;;;;;;;21.10;66.90;;;;;;4999257;28;1965;-70
2023/07/28 05:11:39;;;;;;;;;;;21.10;66.90;;;;;;4998846;28;1259;-70
2023/07/28 05:14:06;;;;;;;;;;;21.10;66.90;;;;;;4999138;28;1068;-70
2023/07/28 05:16:32;;;;;;;;;;;21.00;66.90;;;;;;5000212;28;873;-70
2023/07/28 05:18:57;;;;;;;;;;;21.10;66.90;;;;;;4998626;28;1332;-70
2023/07/28 05:21:22;;;;;;;;;;;21.10;66.90;;;;;;4996575;28;1378;-70
2023/07/28 05:23:48;;;;;;;;;;;21.10;66.90;;;;;;4998940;28;1295;-70
2023/07/28 05:26:13;;;;;;;;;;;21.00;66.80;;;;;;4998896;28;1081;-70
2023/07/28 05:28:39;;;;;;;;;;;21.00;66.80;;;;;;4999425;28;1253;-70
2023/07/28 05:31:05;;;;;;;;;;;21.10;66.90;;;;;;4990698;28;1910;-70
2023/07/28 05:33:30;;;;;;;;;;;21.10;66.90;;;;;;4998658;28;825;-70
2023/07/28 05:36:02;;;;;;;;;;;21.10;66.90;;;;;;4992416;28;1435;-71
2023/07/28 05:38:28;;;;;;;;;;;21.10;66.90;;;;;;5002420;28;905;-70
2023/07/28 05:41:03;;;;;;;;;;;21.10;66.90;;;;;;4997895;28;1378;-70
2023/07/28 05:43:29;;;;;;;;;;;21.00;66.80;;;;;;5001497;28;1343;-71
2023/07/28 05:45:55;;;;;;;;;;;21.10;66.90;;;;;;4990249;28;1206;-71
2023/07/28 05:48:21;;;;;;;;;;;21.10;66.90;;;;;;4996122;28;815;-70
2023/07/28 05:50:46;;;;;;;;;;;21.10;67.00;;;;;;4996859;28;1969;-71
2023/07/28 05:53:13;;;;;;;;;;;21.10;67.00;;;;;;4999986;28;1268;-70
2023/07/28 05:55:39;;;;;;;;;;;21.10;67.10;;;;;;4997109;28;907;-71
2023/07/28 05:58:04;;;;;;;;;;;21.10;67.00;;;;;;4994521;28;887;-70
2023/07/28 06:00:30;;;;;;;;;;;21.10;67.00;;;;;;5000286;28;831;-71
2023/07/28 06:02:56;;;;;;;;;;;21.10;67.00;;;;;;4983464;28;1640;-70
2023/07/28 06:05:22;;;;;;;;;;;21.00;67.00;;;;;;4996612;28;812;-71
2023/07/28 06:07:47;;;;;;;;;;;21.00;66.90;;;;;;4984311;28;1405;-71
2023/07/28 06:10:13;;;;;;;;;;;21.00;67.00;;;;;;4999628;28;1910;-71
2023/07/28 06:12:38;;;;;;;;;;;21.00;67.00;;;;;;4998880;28;1268;-71
2023/07/28 06:15:04;;;;;;;;;;;21.10;67.10;;;;;;5001673;28;891;-72
2023/07/28 06:17:30;;;;;;;;;;;21.00;67.00;;;;;;4997422;28;1723;-73
2023/07/28 06:19:55;;;;;;;;;;;21.00;67.00;;;;;;4995041;28;1883;-70
2023/07/28 06:22:21;;;;;;;;;;;21.10;67.00;;;;;;4999343;28;1566;-69
2023/07/28 06:24:46;;;;;;;;;;;21.10;67.10;;;;;;4999585;28;880;-73
2023/07/28 06:27:12;;;;;;;;;;;21.10;67.00;;;;;;4997260;28;1253;-73
2023/07/28 06:29:37;;;;;;;;;;;21.10;67.00;;;;;;4996193;28;1911;-73
2023/07/28 06:32:03;;;;;;;;;;;21.10;67.00;;;;;;4998748;28;1294;-71
2023/07/28 06:34:28;;;;;;;;;;;21.00;67.00;;;;;;4998400;28;936;-71
2023/07/28 06:36:54;;;;;;;;;;;21.10;67.00;;;;;;4998530;28;805;-71
2023/07/28 06:39:19;;;;;;;;;;;21.10;67.00;;;;;;4997377;28;1282;-71
2023/07/28 06:41:45;;;;;;;;;;;21.00;67.00;;;;;;4998103;28;1289;-73
2023/07/28 06:44:10;;;;;;;;;;;21.10;67.80;;;;;;5004258;28;804;-73
2023/07/28 06:46:36;;;;;;;;;;;21.10;67.00;;;;;;5002793;28;1199;-73
2023/07/28 06:49:01;;;;;;;;;;;21.10;67.00;;;;;;4999595;28;847;-73
2023/07/28 06:51:26;;;;;;;;;;;21.10;67.00;;;;;;5002196;28;1286;-71
2023/07/28 06:53:52;;;;;;;;;;;21.10;67.00;;;;;;5001503;28;852;-71
2023/07/28 06:56:18;;;;;;;;;;;21.10;67.00;;;;;;4999736;28;872;-71
2023/07/28 06:58:43;;;;;;;;;;;21.10;67.00;;;;;;5000205;28;874;-67
2023/07/28 07:01:10;;;;;;;;;;;21.10;67.10;;;;;;5002734;28;1241;-69
2023/07/28 07:03:36;;;;;;;;;;;21.10;67.00;;;;;;5001543;28;950;-69
2023/07/28 07:06:02;;;;;;;;;;;21.10;67.00;;;;;;4997575;28;1002;-69
2023/07/28 07:08:27;;;;;;;;;;;21.10;67.00;;;;;;5003539;28;883;-69
2023/07/28 07:10:53;;;;;;;;;;;21.00;67.00;;;;;;5002560;28;1898;-69
2023/07/28 07:13:18;;;;;;;;;;;21.10;67.00;;;;;;5001371;28;1345;-69
2023/07/28 07:15:44;;;;;;;;;;;21.10;67.00;;;;;;5002992;28;951;-69
2023/07/28 07:18:10;;;;;;;;;;;21.10;67.00;;;;;;5004711;28;1276;-69
2023/07/28 07:20:36;;;;;;;;;;;21.00;66.90;;;;;;5004035;28;1239;-69
2023/07/28 07:23:01;;;;;;;;;;;21.10;67.00;;;;;;4983942;28;1336;-70
2023/07/28 07:25:27;;;;;;;;;;;21.10;67.00;;;;;;5005384;28;1015;-69
2023/07/28 07:27:52;;;;;;;;;;;21.10;67.00;;;;;;5006278;28;1335;-69
2023/07/28 07:30:17;;;;;;;;;;;21.10;67.10;;;;;;5002617;28;1891;-69
2023/07/28 07:32:43;;;;;;;;;;;21.10;67.20;;;;;;5002992;28;1240;-69
2023/07/28 07:35:08;;;;;;;;;;;21.10;67.20;;;;;;5001235;28;835;-69
2023/07/28 07:37:34;;;;;;;;;;;21.10;67.20;;;;;;5004755;28;2192;-69
2023/07/28 07:40:03;;;;;;;;;;;21.10;67.20;;;;;;5002305;28;1459;-69
2023/07/28 07:42:28;;;;;;;;;;;21.00;67.10;;;;;;5003221;28;1320;-69
2023/07/28 07:44:54;;;;;;;;;;;21.10;67.20;;;;;;5001077;28;1320;-69
2023/07/28 07:47:20;;;;;;;;;;;21.10;67.20;;;;;;5002945;28;1058;-69
2023/07/28 07:49:45;;;;;;;;;;;21.10;67.20;;;;;;5001836;28;1969;-69
2023/07/28 07:52:11;;;;;;;;;;;21.10;67.10;;;;;;4997665;28;1269;-70
2023/07/28 07:54:36;;;;;;;;;;;21.10;67.10;;;;;;5005604;28;845;-69
2023/07/28 07:57:02;;;;;;;;;;;21.10;67.20;;;;;;5002214;28;2163;-69
2023/07/28 07:59:30;;;;;;;;;;;21.10;67.20;;;;;;5000756;28;1400;-69
2023/07/28 08:01:56;;;;;;;;;;;21.10;67.20;;;;;;5005905;28;1363;-69
2023/07/28 08:04:21;;;;;;;;;;;21.10;67.20;;;;;;5004760;28;879;-69
2023/07/28 08:06:47;;;;;;;;;;;21.10;67.20;;;;;;5001017;28;824;-69
2023/07/28 08:09:13;;;;;;;;;;;21.10;67.20;;;;;;4999925;28;1914;-69
2023/07/28 08:11:39;;;;;;;;;;;21.10;67.10;;;;;;4994527;28;1269;-69
2023/07/28 08:14:04;;;;;;;;;;;21.10;67.10;;;;;;4997599;28;1037;-69
2023/07/28 08:16:30;;;;;;;;;;;21.00;67.10;;;;;;5001216;28;939;-69
2023/07/28 08:18:55;;;;;;;;;;;21.10;67.10;;;;;;5002165;28;1290;-69
2023/07/28 08:21:22;;;;;;;;;;;21.10;67.20;;;;;;4999721;28;1377;-69
2023/07/28 08:23:48;;;;;;;;;;;21.10;67.10;;;;;;4986103;28;850;-69
2023/07/28 08:26:13;;;;;;;;;;;21.10;67.20;;;;;;5001014;28;875;-69
2023/07/28 08:28:39;;;;;;;;;;;21.00;67.10;;;;;;4998538;28;1292;-69
2023/07/28 08:31:04;;;;;;;;;;;21.10;67.10;;;;;;4997405;28;1902;-69
2023/07/28 08:33:30;;;;;;;;;;;21.10;67.20;;;;;;5001387;28;1392;-69
2023/07/28 08:35:55;;;;;;;;;;;21.00;67.10;;;;;;4997587;28;1074;-69
2023/07/28 08:38:21;;;;;;;;;;;21.10;67.10;;;;;;5001055;28;1238;-69
2023/07/28 08:40:46;;;;;;;;;;;21.10;67.20;;;;;;4999604;28;962;-69
2023/07/28 08:43:12;;;;;;;;;;;21.10;67.20;;;;;;4998858;28;1823;-69
2023/07/28 08:45:37;;;;;;;;;;;21.10;67.10;;;;;;5005165;28;892;-69
2023/07/28 08:48:03;;;;;;;;;;;21.10;67.10;;;;;;5000422;28;855;-69
2023/07/28 08:50:29;;;;;;;;;;;21.10;67.10;;;;;;5002371;28;1902;-69
2023/07/28 08:52:56;;;;;;;;;;;21.10;67.20;;;;;;4999116;28;2112;-69
2023/07/28 08:55:21;;;;;;;;;;;21.10;67.10;;;;;;4996836;28;1429;-68
2023/07/28 08:57:47;;;;;;;;;;;21.10;67.20;;;;;;4998242;28;2044;-68
2023/07/28 09:00:14;;;;;;;;;;;21.10;67.10;;;;;;5001272;28;1953;-68
2023/07/28 09:02:42;;;;;;;;;;;21.10;67.10;;;;;;4998852;28;1383;-70
2023/07/28 09:05:08;;;;;;;;;;;21.10;67.20;;;;;;4999626;28;1330;-70
2023/07/28 09:07:36;;;;;;;;;;;21.10;67.10;;;;;;5000387;28;1560;-69
2023/07/28 09:10:02;;;;;;;;;;;21.10;67.10;;;;;;4997442;28;1960;-69
2023/07/28 09:12:30;;;;;;;;;;;21.00;67.10;;;;;;4986008;28;2212;-69
2023/07/28 09:14:56;;;;;;;;;;;21.10;67.10;;;;;;4992139;28;1758;-69
2023/07/28 09:17:21;;;;;;;;;;;21.00;67.10;;;;;;5000784;28;852;-69
2023/07/28 09:19:50;;;;;;;;;;;21.10;67.20;;;;;;5000420;28;1513;-69
2023/07/28 09:22:16;;;;;;;;;;;21.10;67.20;;;;;;5001976;28;1326;-69
2023/07/28 09:24:42;;;;;;;;;;;21.10;67.20;;;;;;4996785;28;827;-69
2023/07/28 09:27:08;;;;;;;;;;;21.10;67.20;;;;;;4997515;28;1273;-69
2023/07/28 09:29:33;;;;;;;;;;;21.10;67.20;;;;;;4998406;28;1963;-69
2023/07/28 09:32:03;;;;;;;;;;;21.10;67.20;;;;;;4991136;28;1341;-69
2023/07/28 09:34:28;;;;;;;;;;;21.00;67.10;;;;;;4983667;28;895;-69
2023/07/28 09:36:54;;;;;;;;;;;21.10;67.20;;;;;;4993464;28;1413;-69
2023/07/28 09:39:19;;;;;;;;;;;21.10;67.20;;;;;;4985334;28;933;-69
2023/07/28 09:41:45;;;;;;;;;;;21.10;67.20;;;;;;4999752;28;1381;-69
2023/07/28 09:44:10;;;;;;;;;;;21.10;67.20;;;;;;4998818;28;1594;-69
2023/07/28 09:46:36;;;;;;;;;;;21.10;67.20;;;;;;5003471;28;792;-69
2023/07/28 09:49:03;;;;;;;;;;;21.10;67.20;;;;;;4997001;28;1247;-69
2023/07/28 09:51:30;;;;;;;;;;;21.10;67.20;;;;;;5000701;28;1985;-69
2023/07/28 09:53:58;;;;;;;;;;;21.00;67.10;;;;;;4999082;28;914;-69
2023/07/28 09:56:26;;;;;;;;;;;21.10;67.20;;;;;;4995255;28;2184;-69
2023/07/28 09:58:52;;;;;;;;;;;21.10;67.20;;;;;;5001165;28;1385;-69
2023/07/28 10:01:17;;;;;;;;;;;21.10;67.20;;;;;;5000472;28;1318;-69
2023/07/28 10:03:43;;;;;;;;;;;21.10;67.20;;;;;;4983788;28;1393;-69
2023/07/28 10:06:08;;;;;;;;;;;21.10;67.20;;;;;;5000450;28;988;-69
2023/07/28 10:08:34;;;;;;;;;;;21.10;67.20;;;;;;4998706;28;878;-69
2023/07/28 10:10:59;;;;;;;;;;;21.10;67.20;;;;;;4996702;28;1898;-69
2023/07/28 10:13:27;;;;;;;;;;;21.00;67.10;;;;;;4982514;28;1493;-69
2023/07/28 10:15:52;;;;;;;;;;;21.10;67.20;;;;;;4997994;28;844;-69
2023/07/28 10:18:19;;;;;;;;;;;21.10;67.20;;;;;;4997902;28;1292;-69
2023/07/28 10:20:49;;;;;;;;;;;21.10;67.20;;;;;;5001193;28;951;-69
2023/07/28 10:23:19;;;;;;;;;;;21.10;67.20;;;;;;4999390;28;1300;-69
2023/07/28 10:25:45;;;;;;;;;;;21.10;67.20;;;;;;4997482;28;905;-69
2023/07/28 10:28:27;;;;;;;;;;;21.00;67.10;;;;;;5001999;28;1261;-70
2023/07/28 10:30:53;;;;;;;;;;;21.10;67.20;;;;;;4982852;28;1955;-68
2023/07/28 10:33:38;;;;;;;;;;;21.10;67.20;;;;;;4998733;28;1346;-68
2023/07/28 10:36:22;;;;;;;;;;;21.10;67.20;;;;;;4999561;28;916;-69
2023/07/28 10:39:14;;;;;;;;;;;21.10;67.20;;;;;;4993785;28;892;-69
2023/07/28 10:42:00;;;;;;;;;;;21.10;67.20;;;;;;4998919;28;1360;-68
2023/07/28 10:44:25;;;;;;;;;;;21.10;67.20;;;;;;4991109;28;1057;-69
2023/07/28 10:46:51;;;;;;;;;;;21.00;67.10;;;;;;4999060;28;1011;-68
2023/07/28 10:49:17;;;;;;;;;;;21.10;67.20;;;;;;4997994;28;2095;-68
2023/07/28 10:51:42;;;;;;;;;;;21.10;67.20;;;;;;4997389;28;1453;-68
2023/07/28 10:54:08;;;;;;;;;;;21.10;67.20;;;;;;4999765;28;1240;-69
2023/07/28 10:56:33;;;;;;;;;;;21.10;67.20;;;;;;4999696;28;924;-68
2023/07/28 10:58:59;;;;;;;;;;;21.10;67.20;;;;;;5000422;28;839;-68
2023/07/28 11:01:30;;;;;;;;;;;21.10;67.20;;;;;;4998351;28;1356;-69
2023/07/28 11:03:55;;;;;;;;;;;21.10;67.20;;;;;;4995274;28;888;-69
2023/07/28 11:06:21;;;;;;;;;;;21.10;67.20;;;;;;4997628;28;892;-68
2023/07/28 11:08:46;;;;;;;;;;;21.10;67.20;;;;;;4990305;28;973;-69
2023/07/28 11:11:12;;;;;;;;;;;21.10;67.20;;;;;;4999263;28;1907;-69
2023/07/28 11:13:37;;;;;;;;;;;21.00;67.20;;;;;;4996293;28;884;-69
2023/07/28 11:16:04;;;;;;;;;;;21.10;67.20;;;;;;4996896;28;1483;-70
2023/07/28 11:18:29;;;;;;;;;;;21.00;67.20;;;;;;4985589;28;1406;-68
2023/07/28 11:20:55;;;;;;;;;;;21.00;67.20;;;;;;4998643;28;1007;-69
2023/07/28 11:23:20;;;;;;;;;;;21.10;67.20;;;;;;4999405;28;1274;-69
2023/07/28 11:25:47;;;;;;;;;;;21.10;67.20;;;;;;4998743;28;937;-69
2023/07/28 11:28:12;;;;;;;;;;;21.10;67.30;;;;;;4998827;28;1411;-69
2023/07/28 11:30:38;;;;;;;;;;;21.10;67.20;;;;;;5000639;28;1985;-69
2023/07/28 11:33:03;;;;;;;;;;;21.10;67.20;;;;;;4987114;28;1260;-69
2023/07/28 11:35:29;;;;;;;;;;;21.10;67.20;;;;;;5003492;28;962;-70
2023/07/28 11:37:54;;;;;;;;;;;21.00;67.20;;;;;;5003124;28;1231;-69
2023/07/28 11:40:20;;;;;;;;;;;21.10;67.20;;;;;;5005185;28;1034;-68
2023/07/28 11:42:53;;;;;;;;;;;21.10;67.20;;;;;;4985511;28;1365;-68
2023/07/28 11:45:18;;;;;;;;;;;21.10;67.20;;;;;;5001062;28;844;-68
2023/07/28 11:47:59;;;;;;;;;;;21.10;67.20;;;;;;5000082;28;850;-69
2023/07/28 11:50:44;;;;;;;;;;;21.10;67.30;;;;;;5001833;28;1902;-69
2023/07/28 11:53:09;;;;;;;;;;;21.10;67.20;;;;;;5003638;28;1348;-68
2023/07/28 11:55:35;;;;;;;;;;;21.10;67.20;;;;;;5000233;28;840;-69
2023/07/28 11:58:01;;;;;;;;;;;21.10;67.30;;;;;;5000578;28;846;-68
2023/07/28 12:00:30;;;;;;;;;;;21.00;67.20;;;;;;4989025;28;806;-69
2023/07/28 12:03:02;;;;;;;;;;;21.10;67.20;;;;;;5003224;28;1375;-69
2023/07/28 12:05:28;;;;;;;;;;;21.10;67.40;;;;;;5005398;28;841;-69
2023/07/28 12:07:53;;;;;;;;;;;21.10;67.30;;;;;;4999433;28;855;-68
2023/07/28 12:10:19;;;;;;;;;;;21.10;67.30;;;;;;4999326;28;1955;-69
2023/07/28 12:12:45;;;;;;;;;;;21.10;67.30;;;;;;5003014;28;1256;-69
2023/07/28 12:15:20;;;;;;;;;;;21.10;67.30;;;;;;5001371;28;2112;-69
2023/07/28 12:18:04;;;;;;;;;;;21.10;67.30;;;;;;4997591;28;1498;-69
2023/07/28 12:20:33;;;;;;;;;;;21.10;67.30;;;;;;5002402;28;1524;-69
2023/07/28 12:22:59;;;;;;;;;;;21.10;67.30;;;;;;4998329;28;1239;-69
2023/07/28 12:25:25;;;;;;;;;;;21.00;67.30;;;;;;4998252;28;960;-69
2023/07/28 12:27:50;;;;;;;;;;;21.10;67.30;;;;;;4999199;28;1355;-69
2023/07/28 12:30:18;;;;;;;;;;;21.00;67.20;;;;;;5005543;28;2133;-69
2023/07/28 12:32:44;;;;;;;;;;;21.10;67.30;;;;;;5002190;28;1379;-69
2023/07/28 12:35:09;;;;;;;;;;;21.00;67.20;;;;;;5001684;28;1312;-69
2023/07/28 12:37:35;;;;;;;;;;;21.00;67.20;;;;;;5002069;28;852;-69
2023/07/28 12:40:01;;;;;;;;;;;21.10;67.30;;;;;;4995517;28;902;-69
2023/07/28 12:42:26;;;;;;;;;;;21.00;67.30;;;;;;4997841;28;1330;-69
2023/07/28 12:44:52;;;;;;;;;;;21.00;67.30;;;;;;5001478;28;1050;-69
2023/07/28 12:47:17;;;;;;;;;;;21.10;67.30;;;;;;4999704;28;815;-68
2023/07/28 12:49:43;;;;;;;;;;;21.10;67.30;;;;;;4994675;28;1918;-69
2023/07/28 12:52:09;;;;;;;;;;;21.10;67.30;;;;;;4996217;28;1220;-69
2023/07/28 12:54:34;;;;;;;;;;;21.00;67.30;;;;;;4984998;28;1556;-69
2023/07/28 12:57:01;;;;;;;;;;;21.10;67.30;;;;;;5000599;28;894;-69
2023/07/28 12:59:26;;;;;;;;;;;21.10;67.30;;;;;;4997318;28;872;-69
2023/07/28 13:01:52;;;;;;;;;;;21.10;67.40;;;;;;4999367;28;1300;-68
2023/07/28 13:04:17;;;;;;;;;;;21.10;67.40;;;;;;5000921;28;835;-68
2023/07/28 13:06:43;;;;;;;;;;;21.10;67.30;;;;;;5000448;28;883;-68
2023/07/28 13:09:08;;;;;;;;;;;21.10;67.30;;;;;;4989794;28;1295;-69
2023/07/28 13:11:34;;;;;;;;;;;21.10;67.30;;;;;;5001600;28;1954;-70
2023/07/28 13:14:00;;;;;;;;;;;21.10;67.30;;;;;;5001833;28;816;-69
2023/07/28 13:16:25;;;;;;;;;;;21.10;67.30;;;;;;4999971;28;975;-69
2023/07/28 13:18:51;;;;;;;;;;;21.10;67.40;;;;;;4999105;28;1396;-70
2023/07/28 13:21:17;;;;;;;;;;;21.10;67.40;;;;;;4998374;28;1366;-69
2023/07/28 13:23:42;;;;;;;;;;;21.10;67.40;;;;;;4996048;28;880;-72
2023/07/28 13:26:08;;;;;;;;;;;21.00;67.30;;;;;;4995625;28;1459;-71
2023/07/28 13:28:34;;;;;;;;;;;21.00;67.30;;;;;;4999375;28;1329;-71
2023/07/28 13:31:01;;;;;;;;;;;21.10;67.40;;;;;;4985717;28;1960;-71
2023/07/28 13:33:26;;;;;;;;;;;21.10;67.40;;;;;;4997547;28;1365;-71
2023/07/28 13:35:52;;;;;;;;;;;21.10;67.40;;;;;;4986290;28;1750;-69
2023/07/28 13:38:17;;;;;;;;;;;21.10;67.40;;;;;;4995692;28;831;-69
2023/07/28 13:40:43;;;;;;;;;;;21.00;67.30;;;;;;4999087;28;1548;-70
2023/07/28 13:43:08;;;;;;;;;;;21.10;67.40;;;;;;4999227;28;1345;-70
2023/07/28 13:45:34;;;;;;;;;;;21.10;67.40;;;;;;4999856;28;1039;-70
2023/07/28 13:47:59;;;;;;;;;;;21.10;67.40;;;;;;4998328;28;864;-70
2023/07/28 13:50:25;;;;;;;;;;;21.10;67.40;;;;;;4993312;28;1894;-72
2023/07/28 13:52:50;;;;;;;;;;;21.10;67.40;;;;;;4993891;28;1315;-69
2023/07/28 13:55:16;;;;;;;;;;;21.10;67.40;;;;;;4999918;28;1031;-68
2023/07/28 13:57:41;;;;;;;;;;;21.10;67.40;;;;;;5000291;28;927;-69
2023/07/28 14:00:08;;;;;;;;;;;21.10;67.40;;;;;;4997386;28;974;-69
2023/07/28 14:02:35;;;;;;;;;;;21.10;67.40;;;;;;4990440;28;1170;-70
2023/07/28 14:05:00;;;;;;;;;;;21.10;67.40;;;;;;4997143;28;862;-70
2023/07/28 14:07:26;;;;;;;;;;;21.10;67.40;;;;;;4979293;28;1187;-70
2023/07/28 14:09:51;;;;;;;;;;;21.10;67.40;;;;;;4996586;28;1895;-69
2023/07/28 14:12:18;;;;;;;;;;;21.10;67.40;;;;;;4998832;28;1354;-69
2023/07/28 14:14:43;;;;;;;;;;;21.10;67.40;;;;;;5000696;28;881;-69
2023/07/28 14:17:09;;;;;;;;;;;21.10;67.40;;;;;;5000202;28;1442;-69
2023/07/28 14:19:34;;;;;;;;;;;21.00;67.30;;;;;;4998068;28;1400;-69
2023/07/28 14:21:59;;;;;;;;;;;21.10;67.40;;;;;;5001660;28;1363;-69
2023/07/28 14:24:25;;;;;;;;;;;21.10;67.40;;;;;;5000080;28;855;-69
2023/07/28 14:26:50;;;;;;;;;;;21.10;67.40;;;;;;5002741;28;891;-69
2023/07/28 14:29:16;;;;;;;;;;;21.10;67.40;;;;;;4998141;28;1555;-69